This is the latest recevied weather packets stored in our database for station/object SR6WVX. If no packets are shown the sender has not sent any weather packets the latest 10 day(s).
| Time | Temp. | Humidity | Pressure | Rain* | Wind** | Luminosity | Snow |
|---|---|---|---|---|---|---|---|
| 1778051600 | 23.89° C | 51% | 999.8 hPa | 0 mm | - | - | - |
| 1778051299 | 23.89° C | 50% | 999.7 hPa | 0 mm | - | - | - |
| 1778050999 | 24.44° C | 52% | 999.9 hPa | 0 mm | - | - | - |
| 1778050699 | 23.89° C | 53% | 999.7 hPa | 0 mm | - | - | - |
| 1778050399 | 23.33° C | 53% | 1000 hPa | 0 mm | - | - | - |
| 1778050098 | 21.67° C | 56% | 999.9 hPa | 0 mm | - | - | - |
| 1778049798 | 21.67° C | 57% | 1000 hPa | 0 mm | - | - | - |
| 1778049498 | 21.11° C | 58% | 999.9 hPa | 0 mm | - | - | - |
| 1778049198 | 21.67° C | 57% | 999.8 hPa | 0 mm | - | - | - |
| 1778048897 | 22.22° C | 56% | 999.5 hPa | 0 mm | - | - | - |
| 1778048597 | 22.78° C | 56% | 999.7 hPa | 0 mm | - | - | - |
| 1778048297 | 22.78° C | 58% | 999.7 hPa | 0 mm | - | - | - |
| 1778047997 | 22.22° C | 59% | 999.7 hPa | 0 mm | - | - | - |
| 1778047696 | 21.67° C | 64% | 999.9 hPa | 0 mm | - | - | - |
| 1778047396 | 20.56° C | 64% | 999.7 hPa | 0 mm | - | - | - |
| 1778047096 | 20° C | 66% | 1000 hPa | 0 mm | - | - | - |
| 1778046795 | 20° C | 69% | 999.8 hPa | 0 mm | - | - | - |
| 1778046495 | 18.33° C | 76% | 999.7 hPa | 0 mm | - | - | - |
| 1778046195 | 16.67° C | 83% | 999.6 hPa | 0 mm | - | - | - |
| 1778045895 | 14.44° C | 85% | 999.6 hPa | 0 mm | - | - | - |
| 1778045594 | 13.89° C | 86% | 999.7 hPa | 0 mm | - | - | - |
| 1778045294 | 13.89° C | 86% | 999.7 hPa | 0 mm | - | - | - |
| 1778044994 | 13.89° C | 87% | 999.4 hPa | 0 mm | - | - | - |
| 1778044694 | 13.33° C | 88% | 999.5 hPa | 0 mm | - | - | - |
| 1778044393 | 12.78° C | 89% | 999.4 hPa | 0 mm | - | - | - |
* Rain latest hour (hover to see other rain measurements)
** Current wind speed in m/s (hover to see current wind gust speed)